Terminal Aerodrome Forecast
Issued by NWS Sioux Falls, SD

Home | Current Version | Previous Version | Text Only | Print | Product List | Glossary On
Versions: 1 2 3 4 5 6 7 8 9 10 11 12 13 14 15 16
000
FTUS43 KFSD 010520
TAFHON
TAF
KHON 010520Z 0106/0206 15010KT P6SM BKN250
     FM010900 17012G24KT P6SM SCT250
     FM011500 18024G33KT P6SM SCT250
     FM020100 17012G22KT P6SM BKN250=

USA.gov is the U.S. government's official web portal to all federal, state and local government web resources and services.